sensor_id;sensor_type;location;lat;lon;timestamp;P1;durP1;ratioP1;P2;durP2;ratioP2
17283;SDS011;8760;52.248;20.952;2022-12-07T00:01:22;28.17;;;16.43;;
17283;SDS011;8760;52.248;20.952;2022-12-07T00:03:51;27.70;;;16.50;;
17283;SDS011;8760;52.248;20.952;2022-12-07T00:06:19;26.70;;;16.60;;
17283;SDS011;8760;52.248;20.952;2022-12-07T00:08:46;33.93;;;17.30;;
17283;SDS011;8760;52.248;20.952;2022-12-07T00:11:14;32.83;;;17.73;;
17283;SDS011;8760;52.248;20.952;2022-12-07T00:13:44;30.80;;;18.03;;
17283;SDS011;8760;52.248;20.952;2022-12-07T00:16:13;30.13;;;18.53;;
17283;SDS011;8760;52.248;20.952;2022-12-07T00:18:42;30.73;;;18.10;;
17283;SDS011;8760;52.248;20.952;2022-12-07T00:21:10;35.10;;;19.07;;
17283;SDS011;8760;52.248;20.952;2022-12-07T00:23:39;29.67;;;17.43;;
17283;SDS011;8760;52.248;20.952;2022-12-07T00:26:08;32.20;;;18.80;;
17283;SDS011;8760;52.248;20.952;2022-12-07T00:28:36;30.77;;;17.90;;
17283;SDS011;8760;52.248;20.952;2022-12-07T00:31:06;28.90;;;18.20;;
17283;SDS011;8760;52.248;20.952;2022-12-07T00:33:37;29.73;;;17.60;;
17283;SDS011;8760;52.248;20.952;2022-12-07T00:36:05;32.77;;;19.13;;
17283;SDS011;8760;52.248;20.952;2022-12-07T00:38:34;31.20;;;18.43;;
17283;SDS011;8760;52.248;20.952;2022-12-07T00:41:03;36.27;;;20.80;;
17283;SDS011;8760;52.248;20.952;2022-12-07T00:43:32;39.17;;;21.87;;
17283;SDS011;8760;52.248;20.952;2022-12-07T00:45:59;40.17;;;22.67;;
17283;SDS011;8760;52.248;20.952;2022-12-07T00:48:27;43.50;;;24.33;;
17283;SDS011;8760;52.248;20.952;2022-12-07T00:50:54;47.47;;;25.37;;
17283;SDS011;8760;52.248;20.952;2022-12-07T00:53:21;44.70;;;25.27;;
17283;SDS011;8760;52.248;20.952;2022-12-07T00:55:48;46.10;;;25.60;;
17283;SDS011;8760;52.248;20.952;2022-12-07T00:58:15;43.13;;;25.03;;
17283;SDS011;8760;52.248;20.952;2022-12-07T01:00:42;42.53;;;24.30;;
17283;SDS011;8760;52.248;20.952;2022-12-07T01:03:10;46.90;;;24.87;;
17283;SDS011;8760;52.248;20.952;2022-12-07T01:05:40;50.43;;;26.07;;
17283;SDS011;8760;52.248;20.952;2022-12-07T01:08:14;45.60;;;25.90;;
17283;SDS011;8760;52.248;20.952;2022-12-07T01:10:41;39.47;;;25.23;;
17283;SDS011;8760;52.248;20.952;2022-12-07T01:13:08;49.33;;;27.50;;
17283;SDS011;8760;52.248;20.952;2022-12-07T01:15:38;49.73;;;27.43;;
17283;SDS011;8760;52.248;20.952;2022-12-07T01:18:05;47.80;;;27.07;;
17283;SDS011;8760;52.248;20.952;2022-12-07T01:20:32;44.23;;;26.40;;
17283;SDS011;8760;52.248;20.952;2022-12-07T01:23:00;52.70;;;27.90;;
17283;SDS011;8760;52.248;20.952;2022-12-07T01:25:27;54.03;;;26.97;;
17283;SDS011;8760;52.248;20.952;2022-12-07T01:27:54;47.63;;;27.00;;
17283;SDS011;8760;52.248;20.952;2022-12-07T01:30:21;43.67;;;24.20;;
17283;SDS011;8760;52.248;20.952;2022-12-07T01:32:48;44.57;;;24.93;;
17283;SDS011;8760;52.248;20.952;2022-12-07T01:35:15;41.40;;;25.27;;
17283;SDS011;8760;52.248;20.952;2022-12-07T01:37:41;42.40;;;24.83;;
17283;SDS011;8760;52.248;20.952;2022-12-07T01:40:10;44.60;;;25.70;;
17283;SDS011;8760;52.248;20.952;2022-12-07T01:42:37;48.40;;;26.67;;
17283;SDS011;8760;52.248;20.952;2022-12-07T01:48:02;38.83;;;23.20;;
17283;SDS011;8760;52.248;20.952;2022-12-07T01:50:31;37.73;;;22.90;;
17283;SDS011;8760;52.248;20.952;2022-12-07T01:52:58;37.70;;;21.57;;
17283;SDS011;8760;52.248;20.952;2022-12-07T01:55:29;33.43;;;20.90;;
17283;SDS011;8760;52.248;20.952;2022-12-07T01:57:56;34.93;;;21.03;;
17283;SDS011;8760;52.248;20.952;2022-12-07T02:00:24;30.43;;;19.40;;
17283;SDS011;8760;52.248;20.952;2022-12-07T02:02:51;30.23;;;19.07;;
17283;SDS011;8760;52.248;20.952;2022-12-07T02:05:21;29.97;;;18.30;;
17283;SDS011;8760;52.248;20.952;2022-12-07T02:07:50;31.10;;;17.67;;
17283;SDS011;8760;52.248;20.952;2022-12-07T02:10:19;27.13;;;17.23;;
17283;SDS011;8760;52.248;20.952;2022-12-07T02:12:50;25.13;;;15.70;;
17283;SDS011;8760;52.248;20.952;2022-12-07T02:15:20;23.10;;;15.37;;
17283;SDS011;8760;52.248;20.952;2022-12-07T02:17:52;22.43;;;15.43;;
17283;SDS011;8760;52.248;20.952;2022-12-07T02:20:28;21.57;;;13.90;;
17283;SDS011;8760;52.248;20.952;2022-12-07T02:29:15;16.43;;;11.37;;
17283;SDS011;8760;52.248;20.952;2022-12-07T02:31:50;17.23;;;10.90;;
17283;SDS011;8760;52.248;20.952;2022-12-07T02:34:25;16.13;;;10.37;;
17283;SDS011;8760;52.248;20.952;2022-12-07T02:36:57;12.07;;;8.77;;
17283;SDS011;8760;52.248;20.952;2022-12-07T02:39:28;13.33;;;9.37;;
17283;SDS011;8760;52.248;20.952;2022-12-07T02:42:00;12.67;;;9.20;;
17283;SDS011;8760;52.248;20.952;2022-12-07T02:44:35;12.10;;;8.60;;
17283;SDS011;8760;52.248;20.952;2022-12-07T02:47:03;12.03;;;8.90;;
17283;SDS011;8760;52.248;20.952;2022-12-07T02:49:33;14.03;;;9.50;;
17283;SDS011;8760;52.248;20.952;2022-12-07T02:52:01;11.27;;;8.27;;
17283;SDS011;8760;52.248;20.952;2022-12-07T02:54:28;12.50;;;9.83;;
17283;SDS011;8760;52.248;20.952;2022-12-07T02:56:56;13.43;;;9.23;;
17283;SDS011;8760;52.248;20.952;2022-12-07T02:59:30;13.63;;;8.87;;
17283;SDS011;8760;52.248;20.952;2022-12-07T03:02:13;14.17;;;9.40;;
17283;SDS011;8760;52.248;20.952;2022-12-07T03:04:47;13.10;;;9.00;;
17283;SDS011;8760;52.248;20.952;2022-12-07T03:07:24;12.37;;;9.00;;
17283;SDS011;8760;52.248;20.952;2022-12-07T03:09:57;14.03;;;9.20;;
17283;SDS011;8760;52.248;20.952;2022-12-07T03:12:29;12.80;;;9.23;;
17283;SDS011;8760;52.248;20.952;2022-12-07T03:15:03;13.10;;;9.23;;
17283;SDS011;8760;52.248;20.952;2022-12-07T03:17:35;13.57;;;8.80;;
17283;SDS011;8760;52.248;20.952;2022-12-07T03:20:06;13.80;;;8.80;;
17283;SDS011;8760;52.248;20.952;2022-12-07T03:22:35;13.30;;;9.37;;
17283;SDS011;8760;52.248;20.952;2022-12-07T03:25:06;15.07;;;9.30;;
17283;SDS011;8760;52.248;20.952;2022-12-07T03:27:37;12.70;;;9.17;;
17283;SDS011;8760;52.248;20.952;2022-12-07T03:30:12;15.47;;;10.07;;
17283;SDS011;8760;52.248;20.952;2022-12-07T03:32:41;14.73;;;9.87;;
17283;SDS011;8760;52.248;20.952;2022-12-07T03:35:12;13.40;;;9.77;;
17283;SDS011;8760;52.248;20.952;2022-12-07T03:37:44;14.80;;;10.03;;
17283;SDS011;8760;52.248;20.952;2022-12-07T03:40:15;15.27;;;10.43;;
17283;SDS011;8760;52.248;20.952;2022-12-07T03:42:48;12.90;;;9.37;;
17283;SDS011;8760;52.248;20.952;2022-12-07T03:45:18;12.40;;;9.27;;
17283;SDS011;8760;52.248;20.952;2022-12-07T03:47:52;16.07;;;10.33;;
17283;SDS011;8760;52.248;20.952;2022-12-07T03:50:28;13.87;;;9.70;;
17283;SDS011;8760;52.248;20.952;2022-12-07T03:53:04;12.13;;;8.47;;
17283;SDS011;8760;52.248;20.952;2022-12-07T03:55:35;9.37;;;7.37;;
17283;SDS011;8760;52.248;20.952;2022-12-07T03:58:05;10.27;;;7.20;;
17283;SDS011;8760;52.248;20.952;2022-12-07T04:00:36;10.07;;;7.23;;
17283;SDS011;8760;52.248;20.952;2022-12-07T04:03:03;12.10;;;7.43;;
17283;SDS011;8760;52.248;20.952;2022-12-07T04:05:30;8.57;;;6.87;;
17283;SDS011;8760;52.248;20.952;2022-12-07T04:07:57;9.40;;;6.37;;
17283;SDS011;8760;52.248;20.952;2022-12-07T04:10:24;7.53;;;6.03;;
17283;SDS011;8760;52.248;20.952;2022-12-07T04:12:51;9.80;;;6.60;;
17283;SDS011;8760;52.248;20.952;2022-12-07T04:15:18;8.50;;;6.07;;
17283;SDS011;8760;52.248;20.952;2022-12-07T04:17:46;12.20;;;7.10;;
17283;SDS011;8760;52.248;20.952;2022-12-07T04:20:13;8.83;;;6.80;;
17283;SDS011;8760;52.248;20.952;2022-12-07T04:22:40;11.00;;;7.33;;
17283;SDS011;8760;52.248;20.952;2022-12-07T04:25:07;8.53;;;6.43;;
17283;SDS011;8760;52.248;20.952;2022-12-07T04:27:34;9.07;;;6.50;;
17283;SDS011;8760;52.248;20.952;2022-12-07T04:30:01;8.90;;;6.67;;
17283;SDS011;8760;52.248;20.952;2022-12-07T04:32:28;10.57;;;7.10;;
17283;SDS011;8760;52.248;20.952;2022-12-07T04:34:56;9.50;;;6.90;;
17283;SDS011;8760;52.248;20.952;2022-12-07T04:37:23;8.47;;;6.60;;
17283;SDS011;8760;52.248;20.952;2022-12-07T04:39:50;9.17;;;7.30;;
17283;SDS011;8760;52.248;20.952;2022-12-07T04:42:17;9.20;;;7.10;;
17283;SDS011;8760;52.248;20.952;2022-12-07T04:44:44;10.23;;;7.17;;
17283;SDS011;8760;52.248;20.952;2022-12-07T04:47:10;11.40;;;7.60;;
17283;SDS011;8760;52.248;20.952;2022-12-07T04:49:38;7.60;;;6.33;;
17283;SDS011;8760;52.248;20.952;2022-12-07T04:52:06;8.77;;;6.30;;
17283;SDS011;8760;52.248;20.952;2022-12-07T04:54:33;10.03;;;7.00;;
17283;SDS011;8760;52.248;20.952;2022-12-07T04:56:59;8.17;;;6.77;;
17283;SDS011;8760;52.248;20.952;2022-12-07T04:59:26;8.43;;;6.53;;
17283;SDS011;8760;52.248;20.952;2022-12-07T05:01:53;11.43;;;6.90;;
17283;SDS011;8760;52.248;20.952;2022-12-07T05:04:20;8.47;;;6.67;;
17283;SDS011;8760;52.248;20.952;2022-12-07T05:06:47;11.17;;;6.87;;
17283;SDS011;8760;52.248;20.952;2022-12-07T05:09:15;7.90;;;6.27;;
17283;SDS011;8760;52.248;20.952;2022-12-07T05:11:42;9.83;;;6.83;;
17283;SDS011;8760;52.248;20.952;2022-12-07T05:14:11;9.37;;;7.00;;
17283;SDS011;8760;52.248;20.952;2022-12-07T05:16:40;9.23;;;6.40;;
17283;SDS011;8760;52.248;20.952;2022-12-07T05:19:09;9.20;;;6.90;;
17283;SDS011;8760;52.248;20.952;2022-12-07T05:21:36;7.77;;;5.57;;
17283;SDS011;8760;52.248;20.952;2022-12-07T05:24:03;9.73;;;6.53;;
17283;SDS011;8760;52.248;20.952;2022-12-07T05:26:33;11.07;;;6.57;;
17283;SDS011;8760;52.248;20.952;2022-12-07T05:29:00;8.83;;;6.57;;
17283;SDS011;8760;52.248;20.952;2022-12-07T05:31:27;9.47;;;6.47;;
17283;SDS011;8760;52.248;20.952;2022-12-07T05:33:54;10.80;;;6.83;;
17283;SDS011;8760;52.248;20.952;2022-12-07T05:36:21;8.43;;;6.50;;
17283;SDS011;8760;52.248;20.952;2022-12-07T05:38:48;9.53;;;6.53;;
17283;SDS011;8760;52.248;20.952;2022-12-07T05:41:16;10.60;;;6.97;;
17283;SDS011;8760;52.248;20.952;2022-12-07T05:44:03;10.23;;;7.13;;
17283;SDS011;8760;52.248;20.952;2022-12-07T05:46:30;8.77;;;6.87;;
17283;SDS011;8760;52.248;20.952;2022-12-07T05:48:57;9.47;;;6.57;;
17283;SDS011;8760;52.248;20.952;2022-12-07T05:51:24;8.90;;;6.43;;
17283;SDS011;8760;52.248;20.952;2022-12-07T05:53:50;8.70;;;6.50;;
17283;SDS011;8760;52.248;20.952;2022-12-07T05:56:17;9.87;;;6.73;;
17283;SDS011;8760;52.248;20.952;2022-12-07T05:58:44;8.73;;;6.90;;
17283;SDS011;8760;52.248;20.952;2022-12-07T06:01:30;7.90;;;6.50;;
17283;SDS011;8760;52.248;20.952;2022-12-07T06:03:57;8.63;;;6.33;;
17283;SDS011;8760;52.248;20.952;2022-12-07T06:06:24;7.80;;;6.30;;
17283;SDS011;8760;52.248;20.952;2022-12-07T06:08:50;7.73;;;6.50;;
17283;SDS011;8760;52.248;20.952;2022-12-07T06:11:17;9.17;;;6.43;;
17283;SDS011;8760;52.248;20.952;2022-12-07T06:14:02;9.50;;;6.53;;
17283;SDS011;8760;52.248;20.952;2022-12-07T06:16:30;8.47;;;6.37;;
17283;SDS011;8760;52.248;20.952;2022-12-07T06:18:57;9.57;;;6.63;;
17283;SDS011;8760;52.248;20.952;2022-12-07T06:21:24;9.73;;;6.77;;
17283;SDS011;8760;52.248;20.952;2022-12-07T06:23:51;8.40;;;6.30;;
17283;SDS011;8760;52.248;20.952;2022-12-07T06:26:18;10.50;;;6.53;;
17283;SDS011;8760;52.248;20.952;2022-12-07T06:28:45;8.93;;;6.10;;
17283;SDS011;8760;52.248;20.952;2022-12-07T06:31:12;8.37;;;6.47;;
17283;SDS011;8760;52.248;20.952;2022-12-07T06:33:40;8.77;;;6.60;;
17283;SDS011;8760;52.248;20.952;2022-12-07T06:36:08;11.03;;;6.70;;
17283;SDS011;8760;52.248;20.952;2022-12-07T06:38:35;10.37;;;6.97;;
17283;SDS011;8760;52.248;20.952;2022-12-07T06:41:02;7.73;;;6.00;;
17283;SDS011;8760;52.248;20.952;2022-12-07T06:43:29;9.40;;;7.03;;
17283;SDS011;8760;52.248;20.952;2022-12-07T06:45:56;8.50;;;6.60;;
17283;SDS011;8760;52.248;20.952;2022-12-07T06:48:23;8.77;;;6.47;;
17283;SDS011;8760;52.248;20.952;2022-12-07T06:50:51;11.40;;;7.80;;
17283;SDS011;8760;52.248;20.952;2022-12-07T06:53:18;10.30;;;7.40;;
17283;SDS011;8760;52.248;20.952;2022-12-07T06:55:45;10.30;;;7.23;;
17283;SDS011;8760;52.248;20.952;2022-12-07T06:58:12;10.47;;;7.03;;
17283;SDS011;8760;52.248;20.952;2022-12-07T07:00:39;9.03;;;6.20;;
17283;SDS011;8760;52.248;20.952;2022-12-07T07:03:06;9.30;;;6.53;;
17283;SDS011;8760;52.248;20.952;2022-12-07T07:05:33;8.67;;;6.43;;
17283;SDS011;8760;52.248;20.952;2022-12-07T07:08:01;9.03;;;6.33;;
17283;SDS011;8760;52.248;20.952;2022-12-07T07:10:28;9.00;;;6.57;;
17283;SDS011;8760;52.248;20.952;2022-12-07T07:12:55;8.80;;;6.57;;
17283;SDS011;8760;52.248;20.952;2022-12-07T07:15:22;8.03;;;5.63;;
17283;SDS011;8760;52.248;20.952;2022-12-07T07:17:49;8.93;;;6.60;;
17283;SDS011;8760;52.248;20.952;2022-12-07T07:20:16;8.37;;;5.90;;
17283;SDS011;8760;52.248;20.952;2022-12-07T07:22:43;8.97;;;6.17;;
17283;SDS011;8760;52.248;20.952;2022-12-07T07:25:11;9.13;;;6.23;;
17283;SDS011;8760;52.248;20.952;2022-12-07T07:27:38;7.90;;;6.00;;
17283;SDS011;8760;52.248;20.952;2022-12-07T07:30:06;8.67;;;6.17;;
17283;SDS011;8760;52.248;20.952;2022-12-07T07:32:33;9.93;;;6.33;;
17283;SDS011;8760;52.248;20.952;2022-12-07T07:35:00;10.30;;;7.10;;
17283;SDS011;8760;52.248;20.952;2022-12-07T07:37:27;8.83;;;5.97;;
17283;SDS011;8760;52.248;20.952;2022-12-07T07:39:54;8.60;;;6.60;;
17283;SDS011;8760;52.248;20.952;2022-12-07T07:42:22;9.03;;;6.63;;
17283;SDS011;8760;52.248;20.952;2022-12-07T07:44:49;9.40;;;7.10;;
17283;SDS011;8760;52.248;20.952;2022-12-07T07:47:17;12.03;;;7.03;;
17283;SDS011;8760;52.248;20.952;2022-12-07T07:49:44;7.70;;;5.90;;
17283;SDS011;8760;52.248;20.952;2022-12-07T07:52:11;8.63;;;6.53;;
17283;SDS011;8760;52.248;20.952;2022-12-07T07:54:38;7.87;;;6.40;;
17283;SDS011;8760;52.248;20.952;2022-12-07T07:57:05;9.40;;;6.77;;
17283;SDS011;8760;52.248;20.952;2022-12-07T07:59:33;11.03;;;7.17;;
17283;SDS011;8760;52.248;20.952;2022-12-07T08:02:00;8.63;;;6.80;;
17283;SDS011;8760;52.248;20.952;2022-12-07T08:04:27;9.47;;;7.00;;
17283;SDS011;8760;52.248;20.952;2022-12-07T08:06:54;9.90;;;6.90;;
17283;SDS011;8760;52.248;20.952;2022-12-07T08:09:20;10.20;;;7.20;;
17283;SDS011;8760;52.248;20.952;2022-12-07T08:11:47;10.60;;;7.20;;
17283;SDS011;8760;52.248;20.952;2022-12-07T08:14:14;10.23;;;7.90;;
17283;SDS011;8760;52.248;20.952;2022-12-07T08:16:42;12.50;;;7.90;;
17283;SDS011;8760;52.248;20.952;2022-12-07T08:19:09;10.83;;;7.80;;
17283;SDS011;8760;52.248;20.952;2022-12-07T08:21:37;11.97;;;8.03;;
17283;SDS011;8760;52.248;20.952;2022-12-07T08:24:04;10.53;;;7.57;;
17283;SDS011;8760;52.248;20.952;2022-12-07T08:26:31;12.00;;;8.70;;
17283;SDS011;8760;52.248;20.952;2022-12-07T08:28:58;13.97;;;8.67;;
17283;SDS011;8760;52.248;20.952;2022-12-07T08:31:25;18.03;;;9.47;;
17283;SDS011;8760;52.248;20.952;2022-12-07T08:33:54;13.77;;;8.23;;
17283;SDS011;8760;52.248;20.952;2022-12-07T08:36:22;13.70;;;9.60;;
17283;SDS011;8760;52.248;20.952;2022-12-07T08:38:49;13.47;;;9.37;;
17283;SDS011;8760;52.248;20.952;2022-12-07T08:41:16;15.40;;;10.47;;
17283;SDS011;8760;52.248;20.952;2022-12-07T08:43:43;16.97;;;11.77;;
17283;SDS011;8760;52.248;20.952;2022-12-07T08:46:10;17.47;;;10.97;;
17283;SDS011;8760;52.248;20.952;2022-12-07T08:48:45;18.83;;;11.53;;
17283;SDS011;8760;52.248;20.952;2022-12-07T08:51:17;20.17;;;12.27;;
17283;SDS011;8760;52.248;20.952;2022-12-07T08:53:44;20.57;;;11.93;;
17283;SDS011;8760;52.248;20.952;2022-12-07T08:56:11;21.53;;;13.10;;
17283;SDS011;8760;52.248;20.952;2022-12-07T08:58:38;20.97;;;12.30;;
17283;SDS011;8760;52.248;20.952;2022-12-07T09:01:06;20.57;;;12.40;;
17283;SDS011;8760;52.248;20.952;2022-12-07T09:03:33;21.53;;;12.60;;
17283;SDS011;8760;52.248;20.952;2022-12-07T09:06:00;21.80;;;12.87;;
17283;SDS011;8760;52.248;20.952;2022-12-07T09:08:29;19.33;;;12.77;;
17283;SDS011;8760;52.248;20.952;2022-12-07T09:10:59;21.03;;;12.27;;
17283;SDS011;8760;52.248;20.952;2022-12-07T09:13:26;20.87;;;12.60;;
17283;SDS011;8760;52.248;20.952;2022-12-07T09:15:52;20.33;;;12.50;;
17283;SDS011;8760;52.248;20.952;2022-12-07T09:18:19;21.27;;;12.00;;
17283;SDS011;8760;52.248;20.952;2022-12-07T09:20:46;19.63;;;12.07;;
17283;SDS011;8760;52.248;20.952;2022-12-07T09:23:13;20.37;;;12.67;;
17283;SDS011;8760;52.248;20.952;2022-12-07T09:25:41;17.60;;;11.43;;
17283;SDS011;8760;52.248;20.952;2022-12-07T09:28:09;18.57;;;11.93;;
17283;SDS011;8760;52.248;20.952;2022-12-07T09:30:36;18.67;;;12.37;;
17283;SDS011;8760;52.248;20.952;2022-12-07T09:33:03;20.40;;;12.27;;
17283;SDS011;8760;52.248;20.952;2022-12-07T09:35:30;21.50;;;12.87;;
17283;SDS011;8760;52.248;20.952;2022-12-07T09:37:57;18.60;;;12.00;;
17283;SDS011;8760;52.248;20.952;2022-12-07T09:40:24;19.00;;;11.33;;
17283;SDS011;8760;52.248;20.952;2022-12-07T09:42:53;19.90;;;11.27;;
17283;SDS011;8760;52.248;20.952;2022-12-07T09:45:22;20.20;;;12.40;;
17283;SDS011;8760;52.248;20.952;2022-12-07T09:47:50;19.50;;;11.90;;
17283;SDS011;8760;52.248;20.952;2022-12-07T09:50:19;20.67;;;12.60;;
17283;SDS011;8760;52.248;20.952;2022-12-07T09:52:49;20.03;;;10.77;;
17283;SDS011;8760;52.248;20.952;2022-12-07T09:55:19;19.53;;;10.83;;
17283;SDS011;8760;52.248;20.952;2022-12-07T09:57:49;21.30;;;10.60;;
17283;SDS011;8760;52.248;20.952;2022-12-07T10:00:19;17.43;;;10.47;;
17283;SDS011;8760;52.248;20.952;2022-12-07T10:02:47;19.67;;;10.87;;
17283;SDS011;8760;52.248;20.952;2022-12-07T10:05:19;20.93;;;10.53;;
17283;SDS011;8760;52.248;20.952;2022-12-07T10:07:50;21.43;;;10.90;;
17283;SDS011;8760;52.248;20.952;2022-12-07T10:10:17;16.47;;;9.90;;
17283;SDS011;8760;52.248;20.952;2022-12-07T10:12:53;18.17;;;10.80;;
17283;SDS011;8760;52.248;20.952;2022-12-07T10:15:23;17.40;;;10.40;;
17283;SDS011;8760;52.248;20.952;2022-12-07T10:18:03;20.93;;;10.93;;
17283;SDS011;8760;52.248;20.952;2022-12-07T10:20:30;17.37;;;10.47;;
17283;SDS011;8760;52.248;20.952;2022-12-07T10:22:58;19.40;;;11.50;;
17283;SDS011;8760;52.248;20.952;2022-12-07T10:25:27;18.23;;;10.53;;
17283;SDS011;8760;52.248;20.952;2022-12-07T10:27:58;16.80;;;10.07;;
17283;SDS011;8760;52.248;20.952;2022-12-07T10:30:28;18.87;;;10.87;;
17283;SDS011;8760;52.248;20.952;2022-12-07T10:32:55;18.03;;;10.30;;
17283;SDS011;8760;52.248;20.952;2022-12-07T10:35:24;16.60;;;10.00;;
17283;SDS011;8760;52.248;20.952;2022-12-07T10:37:52;20.07;;;9.37;;
17283;SDS011;8760;52.248;20.952;2022-12-07T10:40:24;16.97;;;10.10;;
17283;SDS011;8760;52.248;20.952;2022-12-07T10:43:03;16.67;;;10.33;;
17283;SDS011;8760;52.248;20.952;2022-12-07T10:45:34;16.03;;;10.00;;
17283;SDS011;8760;52.248;20.952;2022-12-07T10:48:08;16.20;;;10.60;;
17283;SDS011;8760;52.248;20.952;2022-12-07T10:50:43;17.03;;;10.73;;
17283;SDS011;8760;52.248;20.952;2022-12-07T10:53:21;16.23;;;9.70;;
17283;SDS011;8760;52.248;20.952;2022-12-07T10:56:08;17.73;;;10.73;;
17283;SDS011;8760;52.248;20.952;2022-12-07T10:58:55;15.80;;;10.83;;
17283;SDS011;8760;52.248;20.952;2022-12-07T11:01:33;14.50;;;10.13;;
17283;SDS011;8760;52.248;20.952;2022-12-07T11:04:11;15.80;;;10.50;;
17283;SDS011;8760;52.248;20.952;2022-12-07T11:06:52;16.70;;;11.17;;
17283;SDS011;8760;52.248;20.952;2022-12-07T11:09:29;13.67;;;10.00;;
17283;SDS011;8760;52.248;20.952;2022-12-07T11:12:20;14.13;;;9.63;;
17283;SDS011;8760;52.248;20.952;2022-12-07T11:14:58;14.57;;;10.80;;
17283;SDS011;8760;52.248;20.952;2022-12-07T11:17:34;15.43;;;10.67;;
17283;SDS011;8760;52.248;20.952;2022-12-07T11:20:12;13.70;;;10.27;;
17283;SDS011;8760;52.248;20.952;2022-12-07T11:22:49;15.07;;;9.97;;
17283;SDS011;8760;52.248;20.952;2022-12-07T11:25:26;19.30;;;10.40;;
17283;SDS011;8760;52.248;20.952;2022-12-07T11:28:04;15.03;;;10.50;;
17283;SDS011;8760;52.248;20.952;2022-12-07T11:30:46;13.97;;;10.87;;
17283;SDS011;8760;52.248;20.952;2022-12-07T11:33:22;17.87;;;10.87;;
17283;SDS011;8760;52.248;20.952;2022-12-07T11:36:00;15.00;;;11.27;;
17283;SDS011;8760;52.248;20.952;2022-12-07T11:38:37;18.97;;;11.33;;
17283;SDS011;8760;52.248;20.952;2022-12-07T11:41:09;13.77;;;10.63;;
17283;SDS011;8760;52.248;20.952;2022-12-07T11:43:42;13.67;;;10.63;;
17283;SDS011;8760;52.248;20.952;2022-12-07T11:46:18;15.53;;;10.90;;
17283;SDS011;8760;52.248;20.952;2022-12-07T11:48:51;15.50;;;10.70;;
17283;SDS011;8760;52.248;20.952;2022-12-07T11:51:24;16.20;;;10.57;;
17283;SDS011;8760;52.248;20.952;2022-12-07T11:53:55;15.07;;;10.37;;
17283;SDS011;8760;52.248;20.952;2022-12-07T11:56:26;13.37;;;10.53;;
17283;SDS011;8760;52.248;20.952;2022-12-07T11:58:57;14.23;;;10.13;;
17283;SDS011;8760;52.248;20.952;2022-12-07T12:01:33;14.83;;;10.10;;
17283;SDS011;8760;52.248;20.952;2022-12-07T12:04:20;14.00;;;10.70;;
17283;SDS011;8760;52.248;20.952;2022-12-07T12:06:54;15.10;;;10.13;;
17283;SDS011;8760;52.248;20.952;2022-12-07T12:09:23;13.00;;;10.50;;
17283;SDS011;8760;52.248;20.952;2022-12-07T12:14:54;15.77;;;10.40;;
17283;SDS011;8760;52.248;20.952;2022-12-07T12:17:40;12.03;;;9.30;;
17283;SDS011;8760;52.248;20.952;2022-12-07T12:20:20;11.80;;;8.90;;
17283;SDS011;8760;52.248;20.952;2022-12-07T12:22:53;13.57;;;9.90;;
17283;SDS011;8760;52.248;20.952;2022-12-07T12:25:25;12.73;;;9.40;;
17283;SDS011;8760;52.248;20.952;2022-12-07T12:27:54;14.00;;;9.87;;
17283;SDS011;8760;52.248;20.952;2022-12-07T12:30:34;16.43;;;10.80;;
17283;SDS011;8760;52.248;20.952;2022-12-07T12:33:05;17.80;;;10.30;;
17283;SDS011;8760;52.248;20.952;2022-12-07T12:35:41;16.77;;;10.37;;
17283;SDS011;8760;52.248;20.952;2022-12-07T12:38:29;16.23;;;11.47;;
17283;SDS011;8760;52.248;20.952;2022-12-07T12:40:58;13.47;;;9.77;;
17283;SDS011;8760;52.248;20.952;2022-12-07T12:43:42;14.63;;;10.03;;
17283;SDS011;8760;52.248;20.952;2022-12-07T12:46:36;13.50;;;10.53;;
17283;SDS011;8760;52.248;20.952;2022-12-07T12:49:30;13.50;;;9.30;;
17283;SDS011;8760;52.248;20.952;2022-12-07T12:55:20;15.50;;;10.80;;
17283;SDS011;8760;52.248;20.952;2022-12-07T12:58:22;19.00;;;11.50;;
17283;SDS011;8760;52.248;20.952;2022-12-07T13:07:12;14.63;;;10.20;;
17283;SDS011;8760;52.248;20.952;2022-12-07T13:10:00;12.83;;;9.67;;
17283;SDS011;8760;52.248;20.952;2022-12-07T13:12:30;10.97;;;8.03;;
17283;SDS011;8760;52.248;20.952;2022-12-07T13:14:58;11.17;;;8.00;;
17283;SDS011;8760;52.248;20.952;2022-12-07T13:23:19;9.90;;;7.20;;
17283;SDS011;8760;52.248;20.952;2022-12-07T13:25:53;10.80;;;7.50;;
17283;SDS011;8760;52.248;20.952;2022-12-07T13:28:27;10.73;;;7.37;;
17283;SDS011;8760;52.248;20.952;2022-12-07T13:31:14;9.90;;;7.37;;
17283;SDS011;8760;52.248;20.952;2022-12-07T13:33:56;10.17;;;7.87;;
17283;SDS011;8760;52.248;20.952;2022-12-07T13:36:24;10.40;;;7.90;;
17283;SDS011;8760;52.248;20.952;2022-12-07T13:38:54;12.00;;;8.87;;
17283;SDS011;8760;52.248;20.952;2022-12-07T13:41:22;10.37;;;7.80;;
17283;SDS011;8760;52.248;20.952;2022-12-07T13:43:59;11.37;;;8.30;;
17283;SDS011;8760;52.248;20.952;2022-12-07T13:46:32;12.13;;;9.33;;
17283;SDS011;8760;52.248;20.952;2022-12-07T13:49:15;11.30;;;8.57;;
17283;SDS011;8760;52.248;20.952;2022-12-07T13:51:44;21.20;;;9.47;;
17283;SDS011;8760;52.248;20.952;2022-12-07T13:54:12;11.80;;;9.20;;
17283;SDS011;8760;52.248;20.952;2022-12-07T13:56:39;13.13;;;9.90;;
17283;SDS011;8760;52.248;20.952;2022-12-07T13:59:10;13.10;;;9.93;;
17283;SDS011;8760;52.248;20.952;2022-12-07T14:01:41;13.93;;;10.40;;
17283;SDS011;8760;52.248;20.952;2022-12-07T14:04:18;15.90;;;11.03;;
17283;SDS011;8760;52.248;20.952;2022-12-07T14:07:01;15.00;;;11.47;;
17283;SDS011;8760;52.248;20.952;2022-12-07T14:09:53;16.43;;;12.07;;
17283;SDS011;8760;52.248;20.952;2022-12-07T14:12:25;19.13;;;12.93;;
17283;SDS011;8760;52.248;20.952;2022-12-07T14:14:54;16.80;;;12.73;;
17283;SDS011;8760;52.248;20.952;2022-12-07T14:17:23;17.73;;;13.40;;
17283;SDS011;8760;52.248;20.952;2022-12-07T14:19:52;16.77;;;12.93;;
17283;SDS011;8760;52.248;20.952;2022-12-07T14:22:22;16.90;;;12.90;;
17283;SDS011;8760;52.248;20.952;2022-12-07T14:27:47;20.47;;;14.27;;
17283;SDS011;8760;52.248;20.952;2022-12-07T14:30:19;17.07;;;12.60;;
17283;SDS011;8760;52.248;20.952;2022-12-07T14:32:47;18.03;;;14.07;;
17283;SDS011;8760;52.248;20.952;2022-12-07T14:35:17;17.87;;;13.57;;
17283;SDS011;8760;52.248;20.952;2022-12-07T14:37:46;20.90;;;14.43;;
17283;SDS011;8760;52.248;20.952;2022-12-07T14:40:15;18.83;;;14.13;;
17283;SDS011;8760;52.248;20.952;2022-12-07T14:42:43;18.97;;;13.87;;
17283;SDS011;8760;52.248;20.952;2022-12-07T14:45:13;18.63;;;13.90;;
17283;SDS011;8760;52.248;20.952;2022-12-07T14:47:44;19.00;;;14.70;;
17283;SDS011;8760;52.248;20.952;2022-12-07T14:50:12;21.50;;;14.57;;
17283;SDS011;8760;52.248;20.952;2022-12-07T14:52:40;19.67;;;13.67;;
17283;SDS011;8760;52.248;20.952;2022-12-07T14:55:13;18.20;;;14.67;;
17283;SDS011;8760;52.248;20.952;2022-12-07T14:57:44;19.83;;;14.53;;
17283;SDS011;8760;52.248;20.952;2022-12-07T15:00:14;19.43;;;14.20;;
17283;SDS011;8760;52.248;20.952;2022-12-07T15:02:43;18.67;;;13.90;;
17283;SDS011;8760;52.248;20.952;2022-12-07T15:05:12;22.70;;;14.43;;
17283;SDS011;8760;52.248;20.952;2022-12-07T15:07:39;20.57;;;15.03;;
17283;SDS011;8760;52.248;20.952;2022-12-07T15:10:09;20.67;;;15.30;;
17283;SDS011;8760;52.248;20.952;2022-12-07T15:12:43;20.47;;;15.43;;
17283;SDS011;8760;52.248;20.952;2022-12-07T15:15:10;22.40;;;15.83;;
17283;SDS011;8760;52.248;20.952;2022-12-07T15:17:37;22.87;;;15.67;;
17283;SDS011;8760;52.248;20.952;2022-12-07T15:20:07;20.90;;;14.73;;